sensor_id;sensor_type;location;lat;lon;timestamp;P1;durP1;ratioP1;P2;durP2;ratioP2
10469;SDS011;5282;47.052;15.458;2024-01-27T00:00:23;0.40;;;0.40;;
10469;SDS011;5282;47.052;15.458;2024-01-27T00:03:03;1.23;;;0.47;;
10469;SDS011;5282;47.052;15.458;2024-01-27T00:05:30;0.40;;;0.40;;
10469;SDS011;5282;47.052;15.458;2024-01-27T00:07:57;0.50;;;0.50;;
10469;SDS011;5282;47.052;15.458;2024-01-27T00:10:25;0.30;;;0.30;;
10469;SDS011;5282;47.052;15.458;2024-01-27T00:12:52;0.40;;;0.40;;
10469;SDS011;5282;47.052;15.458;2024-01-27T00:15:20;0.63;;;0.50;;
10469;SDS011;5282;47.052;15.458;2024-01-27T00:17:49;0.30;;;0.30;;
10469;SDS011;5282;47.052;15.458;2024-01-27T00:20:17;0.30;;;0.30;;
10469;SDS011;5282;47.052;15.458;2024-01-27T00:22:45;0.47;;;0.47;;
10469;SDS011;5282;47.052;15.458;2024-01-27T00:25:12;0.40;;;0.40;;
10469;SDS011;5282;47.052;15.458;2024-01-27T00:27:40;0.40;;;0.40;;
10469;SDS011;5282;47.052;15.458;2024-01-27T00:30:07;0.43;;;0.40;;
10469;SDS011;5282;47.052;15.458;2024-01-27T00:32:37;0.50;;;0.43;;
10469;SDS011;5282;47.052;15.458;2024-01-27T00:35:04;0.40;;;0.40;;
10469;SDS011;5282;47.052;15.458;2024-01-27T00:37:33;1.17;;;0.40;;
10469;SDS011;5282;47.052;15.458;2024-01-27T00:40:00;0.50;;;0.50;;
10469;SDS011;5282;47.052;15.458;2024-01-27T00:42:28;1.57;;;0.50;;
10469;SDS011;5282;47.052;15.458;2024-01-27T00:44:56;0.67;;;0.57;;
10469;SDS011;5282;47.052;15.458;2024-01-27T00:47:23;0.23;;;0.23;;
10469;SDS011;5282;47.052;15.458;2024-01-27T00:49:50;0.70;;;0.47;;
10469;SDS011;5282;47.052;15.458;2024-01-27T00:52:19;0.40;;;0.40;;
10469;SDS011;5282;47.052;15.458;2024-01-27T00:54:46;0.37;;;0.37;;
10469;SDS011;5282;47.052;15.458;2024-01-27T00:57:14;0.60;;;0.60;;
10469;SDS011;5282;47.052;15.458;2024-01-27T00:59:46;0.50;;;0.50;;
10469;SDS011;5282;47.052;15.458;2024-01-27T01:02:14;1.10;;;0.40;;
10469;SDS011;5282;47.052;15.458;2024-01-27T01:04:42;0.40;;;0.40;;
10469;SDS011;5282;47.052;15.458;2024-01-27T01:07:10;0.40;;;0.40;;
10469;SDS011;5282;47.052;15.458;2024-01-27T01:09:37;0.30;;;0.30;;
10469;SDS011;5282;47.052;15.458;2024-01-27T01:12:04;0.30;;;0.30;;
10469;SDS011;5282;47.052;15.458;2024-01-27T01:14:32;0.27;;;0.27;;
10469;SDS011;5282;47.052;15.458;2024-01-27T01:16:59;0.30;;;0.30;;
10469;SDS011;5282;47.052;15.458;2024-01-27T01:19:27;0.40;;;0.40;;
10469;SDS011;5282;47.052;15.458;2024-01-27T01:21:54;0.40;;;0.40;;
10469;SDS011;5282;47.052;15.458;2024-01-27T01:24:21;0.60;;;0.40;;
10469;SDS011;5282;47.052;15.458;2024-01-27T01:26:48;1.13;;;0.50;;
10469;SDS011;5282;47.052;15.458;2024-01-27T01:29:15;0.20;;;0.20;;
10469;SDS011;5282;47.052;15.458;2024-01-27T01:31:43;0.40;;;0.40;;
10469;SDS011;5282;47.052;15.458;2024-01-27T01:34:10;3.07;;;0.40;;
10469;SDS011;5282;47.052;15.458;2024-01-27T01:36:38;0.30;;;0.30;;
10469;SDS011;5282;47.052;15.458;2024-01-27T01:39:06;0.37;;;0.30;;
10469;SDS011;5282;47.052;15.458;2024-01-27T01:41:33;0.30;;;0.30;;
10469;SDS011;5282;47.052;15.458;2024-01-27T01:43:59;0.40;;;0.40;;
10469;SDS011;5282;47.052;15.458;2024-01-27T01:46:26;1.20;;;0.47;;
10469;SDS011;5282;47.052;15.458;2024-01-27T01:48:54;0.30;;;0.30;;
10469;SDS011;5282;47.052;15.458;2024-01-27T01:51:21;0.40;;;0.30;;
10469;SDS011;5282;47.052;15.458;2024-01-27T01:53:50;0.50;;;0.50;;
10469;SDS011;5282;47.052;15.458;2024-01-27T01:56:18;0.33;;;0.33;;
10469;SDS011;5282;47.052;15.458;2024-01-27T01:58:45;0.30;;;0.30;;
10469;SDS011;5282;47.052;15.458;2024-01-27T02:01:12;0.50;;;0.30;;
10469;SDS011;5282;47.052;15.458;2024-01-27T02:03:39;0.30;;;0.30;;
10469;SDS011;5282;47.052;15.458;2024-01-27T02:06:06;0.23;;;0.23;;
10469;SDS011;5282;47.052;15.458;2024-01-27T02:08:33;0.40;;;0.40;;
10469;SDS011;5282;47.052;15.458;2024-01-27T02:11:01;0.30;;;0.30;;
10469;SDS011;5282;47.052;15.458;2024-01-27T02:13:28;0.50;;;0.30;;
10469;SDS011;5282;47.052;15.458;2024-01-27T02:15:55;0.30;;;0.30;;
10469;SDS011;5282;47.052;15.458;2024-01-27T02:18:22;0.40;;;0.40;;
10469;SDS011;5282;47.052;15.458;2024-01-27T02:20:49;1.60;;;0.30;;
10469;SDS011;5282;47.052;15.458;2024-01-27T02:23:15;5.30;;;0.40;;
10469;SDS011;5282;47.052;15.458;2024-01-27T02:25:44;1.70;;;0.33;;
10469;SDS011;5282;47.052;15.458;2024-01-27T02:28:11;0.30;;;0.30;;
10469;SDS011;5282;47.052;15.458;2024-01-27T02:30:38;0.30;;;0.30;;
10469;SDS011;5282;47.052;15.458;2024-01-27T02:33:05;0.23;;;0.23;;
10469;SDS011;5282;47.052;15.458;2024-01-27T02:35:32;0.30;;;0.30;;
10469;SDS011;5282;47.052;15.458;2024-01-27T02:38:00;0.27;;;0.27;;
10469;SDS011;5282;47.052;15.458;2024-01-27T02:40:27;0.30;;;0.30;;
10469;SDS011;5282;47.052;15.458;2024-01-27T02:42:55;0.40;;;0.40;;
10469;SDS011;5282;47.052;15.458;2024-01-27T02:45:22;0.30;;;0.30;;
10469;SDS011;5282;47.052;15.458;2024-01-27T02:47:50;0.30;;;0.30;;
10469;SDS011;5282;47.052;15.458;2024-01-27T02:50:17;0.30;;;0.30;;
10469;SDS011;5282;47.052;15.458;2024-01-27T02:52:44;0.27;;;0.27;;
10469;SDS011;5282;47.052;15.458;2024-01-27T02:55:11;0.20;;;0.20;;
10469;SDS011;5282;47.052;15.458;2024-01-27T02:57:40;0.30;;;0.30;;
10469;SDS011;5282;47.052;15.458;2024-01-27T03:00:09;0.40;;;0.40;;
10469;SDS011;5282;47.052;15.458;2024-01-27T03:02:37;0.93;;;0.30;;
10469;SDS011;5282;47.052;15.458;2024-01-27T03:05:04;0.73;;;0.50;;
10469;SDS011;5282;47.052;15.458;2024-01-27T03:07:31;1.23;;;0.43;;
10469;SDS011;5282;47.052;15.458;2024-01-27T03:09:59;0.47;;;0.30;;
10469;SDS011;5282;47.052;15.458;2024-01-27T03:12:26;0.40;;;0.40;;
10469;SDS011;5282;47.052;15.458;2024-01-27T03:14:53;0.60;;;0.60;;
10469;SDS011;5282;47.052;15.458;2024-01-27T03:17:22;0.60;;;0.60;;
10469;SDS011;5282;47.052;15.458;2024-01-27T03:19:51;0.50;;;0.50;;
10469;SDS011;5282;47.052;15.458;2024-01-27T03:22:30;0.50;;;0.30;;
10469;SDS011;5282;47.052;15.458;2024-01-27T03:25:00;0.40;;;0.40;;
10469;SDS011;5282;47.052;15.458;2024-01-27T03:27:27;0.30;;;0.30;;
10469;SDS011;5282;47.052;15.458;2024-01-27T03:29:58;0.33;;;0.33;;
10469;SDS011;5282;47.052;15.458;2024-01-27T03:32:28;0.40;;;0.40;;
10469;SDS011;5282;47.052;15.458;2024-01-27T03:34:57;0.40;;;0.40;;
10469;SDS011;5282;47.052;15.458;2024-01-27T03:37:24;0.53;;;0.40;;
10469;SDS011;5282;47.052;15.458;2024-01-27T03:39:51;0.57;;;0.57;;
10469;SDS011;5282;47.052;15.458;2024-01-27T03:42:18;0.40;;;0.40;;
10469;SDS011;5282;47.052;15.458;2024-01-27T03:44:45;0.40;;;0.40;;
10469;SDS011;5282;47.052;15.458;2024-01-27T03:47:13;0.30;;;0.30;;
10469;SDS011;5282;47.052;15.458;2024-01-27T03:49:42;0.37;;;0.37;;
10469;SDS011;5282;47.052;15.458;2024-01-27T03:52:09;0.97;;;0.40;;
10469;SDS011;5282;47.052;15.458;2024-01-27T03:54:37;0.43;;;0.43;;
10469;SDS011;5282;47.052;15.458;2024-01-27T03:57:04;0.60;;;0.60;;
10469;SDS011;5282;47.052;15.458;2024-01-27T03:59:30;0.30;;;0.30;;
10469;SDS011;5282;47.052;15.458;2024-01-27T04:01:57;0.63;;;0.40;;
10469;SDS011;5282;47.052;15.458;2024-01-27T04:04:24;0.43;;;0.43;;
10469;SDS011;5282;47.052;15.458;2024-01-27T04:06:53;0.50;;;0.40;;
10469;SDS011;5282;47.052;15.458;2024-01-27T04:09:20;0.30;;;0.30;;
10469;SDS011;5282;47.052;15.458;2024-01-27T04:11:47;0.50;;;0.50;;
10469;SDS011;5282;47.052;15.458;2024-01-27T04:14:14;1.30;;;0.57;;
10469;SDS011;5282;47.052;15.458;2024-01-27T04:16:41;0.70;;;0.53;;
10469;SDS011;5282;47.052;15.458;2024-01-27T04:19:08;0.30;;;0.30;;
10469;SDS011;5282;47.052;15.458;2024-01-27T04:21:35;1.27;;;0.40;;
10469;SDS011;5282;47.052;15.458;2024-01-27T04:24:04;0.30;;;0.30;;
10469;SDS011;5282;47.052;15.458;2024-01-27T04:26:32;1.07;;;0.40;;
10469;SDS011;5282;47.052;15.458;2024-01-27T04:28:59;0.30;;;0.30;;
10469;SDS011;5282;47.052;15.458;2024-01-27T04:31:25;0.43;;;0.20;;
10469;SDS011;5282;47.052;15.458;2024-01-27T04:33:52;1.90;;;0.60;;
10469;SDS011;5282;47.052;15.458;2024-01-27T04:36:25;2.03;;;0.70;;
10469;SDS011;5282;47.052;15.458;2024-01-27T04:38:53;0.47;;;0.40;;
10469;SDS011;5282;47.052;15.458;2024-01-27T04:41:21;1.27;;;0.50;;
10469;SDS011;5282;47.052;15.458;2024-01-27T04:43:48;0.83;;;0.50;;
10469;SDS011;5282;47.052;15.458;2024-01-27T04:46:16;0.87;;;0.63;;
10469;SDS011;5282;47.052;15.458;2024-01-27T04:48:43;0.57;;;0.40;;
10469;SDS011;5282;47.052;15.458;2024-01-27T04:51:09;0.50;;;0.50;;
10469;SDS011;5282;47.052;15.458;2024-01-27T04:53:36;1.57;;;0.60;;
10469;SDS011;5282;47.052;15.458;2024-01-27T04:56:03;0.50;;;0.50;;
10469;SDS011;5282;47.052;15.458;2024-01-27T04:58:34;1.10;;;0.50;;
10469;SDS011;5282;47.052;15.458;2024-01-27T05:01:02;0.77;;;0.73;;
10469;SDS011;5282;47.052;15.458;2024-01-27T05:03:33;0.40;;;0.40;;
10469;SDS011;5282;47.052;15.458;2024-01-27T05:06:00;0.50;;;0.50;;
10469;SDS011;5282;47.052;15.458;2024-01-27T05:08:27;0.30;;;0.30;;
10469;SDS011;5282;47.052;15.458;2024-01-27T05:10:54;1.90;;;0.60;;
10469;SDS011;5282;47.052;15.458;2024-01-27T05:13:21;0.67;;;0.67;;
10469;SDS011;5282;47.052;15.458;2024-01-27T05:15:49;0.77;;;0.50;;
10469;SDS011;5282;47.052;15.458;2024-01-27T05:18:16;0.70;;;0.70;;
10469;SDS011;5282;47.052;15.458;2024-01-27T05:20:43;0.60;;;0.60;;
10469;SDS011;5282;47.052;15.458;2024-01-27T05:23:10;2.50;;;0.90;;
10469;SDS011;5282;47.052;15.458;2024-01-27T05:25:37;1.23;;;0.50;;
10469;SDS011;5282;47.052;15.458;2024-01-27T05:28:04;0.47;;;0.47;;
10469;SDS011;5282;47.052;15.458;2024-01-27T05:30:32;1.10;;;0.70;;
10469;SDS011;5282;47.052;15.458;2024-01-27T05:33:01;0.50;;;0.50;;
10469;SDS011;5282;47.052;15.458;2024-01-27T05:35:27;1.27;;;0.60;;
10469;SDS011;5282;47.052;15.458;2024-01-27T05:37:55;1.60;;;0.60;;
10469;SDS011;5282;47.052;15.458;2024-01-27T05:40:23;1.70;;;0.60;;
10469;SDS011;5282;47.052;15.458;2024-01-27T05:42:49;2.70;;;0.60;;
10469;SDS011;5282;47.052;15.458;2024-01-27T05:45:17;0.50;;;0.50;;
10469;SDS011;5282;47.052;15.458;2024-01-27T05:47:44;0.60;;;0.60;;
10469;SDS011;5282;47.052;15.458;2024-01-27T05:50:13;0.73;;;0.70;;
10469;SDS011;5282;47.052;15.458;2024-01-27T05:52:40;1.90;;;0.77;;
10469;SDS011;5282;47.052;15.458;2024-01-27T05:55:07;1.13;;;0.47;;
10469;SDS011;5282;47.052;15.458;2024-01-27T05:57:35;0.50;;;0.50;;
10469;SDS011;5282;47.052;15.458;2024-01-27T06:00:02;0.50;;;0.50;;
10469;SDS011;5282;47.052;15.458;2024-01-27T06:02:29;0.57;;;0.57;;
10469;SDS011;5282;47.052;15.458;2024-01-27T06:04:56;0.50;;;0.50;;
10469;SDS011;5282;47.052;15.458;2024-01-27T06:07:25;0.60;;;0.60;;
10469;SDS011;5282;47.052;15.458;2024-01-27T06:09:52;2.73;;;1.00;;
10469;SDS011;5282;47.052;15.458;2024-01-27T06:12:19;1.50;;;0.47;;
10469;SDS011;5282;47.052;15.458;2024-01-27T06:14:46;0.70;;;0.70;;
10469;SDS011;5282;47.052;15.458;2024-01-27T06:17:13;0.97;;;0.60;;
10469;SDS011;5282;47.052;15.458;2024-01-27T06:19:41;0.97;;;0.70;;
10469;SDS011;5282;47.052;15.458;2024-01-27T06:22:08;0.70;;;0.60;;
10469;SDS011;5282;47.052;15.458;2024-01-27T06:24:42;8.30;;;0.93;;
10469;SDS011;5282;47.052;15.458;2024-01-27T06:27:10;0.87;;;0.70;;
10469;SDS011;5282;47.052;15.458;2024-01-27T06:29:37;1.10;;;0.97;;
10469;SDS011;5282;47.052;15.458;2024-01-27T06:32:04;0.60;;;0.60;;
10469;SDS011;5282;47.052;15.458;2024-01-27T06:34:31;1.53;;;0.40;;
10469;SDS011;5282;47.052;15.458;2024-01-27T06:36:58;0.43;;;0.40;;
10469;SDS011;5282;47.052;15.458;2024-01-27T06:39:25;1.37;;;0.70;;
10469;SDS011;5282;47.052;15.458;2024-01-27T06:41:53;0.60;;;0.60;;
10469;SDS011;5282;47.052;15.458;2024-01-27T06:44:20;0.70;;;0.70;;
10469;SDS011;5282;47.052;15.458;2024-01-27T06:46:47;0.50;;;0.50;;
10469;SDS011;5282;47.052;15.458;2024-01-27T06:49:15;0.50;;;0.50;;
10469;SDS011;5282;47.052;15.458;2024-01-27T06:51:43;0.40;;;0.40;;
10469;SDS011;5282;47.052;15.458;2024-01-27T06:54:09;3.50;;;1.20;;
10469;SDS011;5282;47.052;15.458;2024-01-27T06:56:36;1.30;;;1.20;;
10469;SDS011;5282;47.052;15.458;2024-01-27T06:59:05;1.20;;;1.03;;
10469;SDS011;5282;47.052;15.458;2024-01-27T07:01:31;0.70;;;0.70;;
10469;SDS011;5282;47.052;15.458;2024-01-27T07:03:58;1.90;;;1.03;;
10469;SDS011;5282;47.052;15.458;2024-01-27T07:06:25;2.17;;;1.07;;
10469;SDS011;5282;47.052;15.458;2024-01-27T07:08:52;1.20;;;1.10;;
10469;SDS011;5282;47.052;15.458;2024-01-27T07:11:18;3.50;;;1.03;;
10469;SDS011;5282;47.052;15.458;2024-01-27T07:13:45;4.07;;;1.10;;
10469;SDS011;5282;47.052;15.458;2024-01-27T07:16:13;1.80;;;0.93;;
10469;SDS011;5282;47.052;15.458;2024-01-27T07:18:40;1.40;;;0.90;;
10469;SDS011;5282;47.052;15.458;2024-01-27T07:21:07;1.57;;;1.17;;
10469;SDS011;5282;47.052;15.458;2024-01-27T07:23:34;2.27;;;1.03;;
10469;SDS011;5282;47.052;15.458;2024-01-27T07:26:01;2.37;;;1.27;;
10469;SDS011;5282;47.052;15.458;2024-01-27T07:28:29;1.40;;;1.00;;
10469;SDS011;5282;47.052;15.458;2024-01-27T07:30:56;1.00;;;1.00;;
10469;SDS011;5282;47.052;15.458;2024-01-27T07:33:24;4.40;;;1.00;;
10469;SDS011;5282;47.052;15.458;2024-01-27T07:35:51;1.00;;;0.90;;
10469;SDS011;5282;47.052;15.458;2024-01-27T07:38:18;3.87;;;1.00;;
10469;SDS011;5282;47.052;15.458;2024-01-27T07:40:45;3.97;;;1.27;;
10469;SDS011;5282;47.052;15.458;2024-01-27T07:43:12;1.27;;;1.10;;
10469;SDS011;5282;47.052;15.458;2024-01-27T07:45:39;1.80;;;1.00;;
10469;SDS011;5282;47.052;15.458;2024-01-27T07:48:06;1.47;;;1.00;;
10469;SDS011;5282;47.052;15.458;2024-01-27T07:50:35;1.60;;;1.50;;
10469;SDS011;5282;47.052;15.458;2024-01-27T07:53:02;2.17;;;1.33;;
10469;SDS011;5282;47.052;15.458;2024-01-27T07:55:33;2.30;;;1.30;;
10469;SDS011;5282;47.052;15.458;2024-01-27T07:58:00;10.67;;;1.70;;
10469;SDS011;5282;47.052;15.458;2024-01-27T08:00:30;2.97;;;1.50;;
10469;SDS011;5282;47.052;15.458;2024-01-27T08:02:58;2.47;;;1.47;;
10469;SDS011;5282;47.052;15.458;2024-01-27T08:05:25;1.37;;;1.27;;
10469;SDS011;5282;47.052;15.458;2024-01-27T08:07:53;2.37;;;1.40;;
10469;SDS011;5282;47.052;15.458;2024-01-27T08:10:20;1.60;;;1.47;;
10469;SDS011;5282;47.052;15.458;2024-01-27T08:12:47;3.77;;;2.10;;
10469;SDS011;5282;47.052;15.458;2024-01-27T08:15:14;1.67;;;1.30;;
10469;SDS011;5282;47.052;15.458;2024-01-27T08:17:43;2.20;;;1.13;;
10469;SDS011;5282;47.052;15.458;2024-01-27T08:20:10;1.00;;;1.00;;
10469;SDS011;5282;47.052;15.458;2024-01-27T08:22:38;2.73;;;1.00;;
10469;SDS011;5282;47.052;15.458;2024-01-27T08:25:06;2.30;;;1.40;;
10469;SDS011;5282;47.052;15.458;2024-01-27T08:27:34;4.17;;;1.00;;
10469;SDS011;5282;47.052;15.458;2024-01-27T08:30:01;1.13;;;0.97;;
10469;SDS011;5282;47.052;15.458;2024-01-27T08:32:28;0.80;;;0.80;;
10469;SDS011;5282;47.052;15.458;2024-01-27T08:34:54;1.17;;;0.87;;
10469;SDS011;5282;47.052;15.458;2024-01-27T08:37:21;0.87;;;0.87;;
10469;SDS011;5282;47.052;15.458;2024-01-27T08:39:48;0.70;;;0.70;;
10469;SDS011;5282;47.052;15.458;2024-01-27T08:42:17;1.80;;;1.70;;
10469;SDS011;5282;47.052;15.458;2024-01-27T08:44:44;5.17;;;1.90;;
10469;SDS011;5282;47.052;15.458;2024-01-27T08:47:12;5.70;;;1.37;;
10469;SDS011;5282;47.052;15.458;2024-01-27T08:49:39;2.43;;;1.50;;
10469;SDS011;5282;47.052;15.458;2024-01-27T08:52:06;1.47;;;1.30;;
10469;SDS011;5282;47.052;15.458;2024-01-27T08:54:33;1.07;;;0.97;;
10469;SDS011;5282;47.052;15.458;2024-01-27T08:57:00;0.97;;;0.97;;
10469;SDS011;5282;47.052;15.458;2024-01-27T08:59:29;1.10;;;0.87;;
10469;SDS011;5282;47.052;15.458;2024-01-27T09:01:56;3.00;;;1.53;;
10469;SDS011;5282;47.052;15.458;2024-01-27T09:04:23;1.43;;;0.97;;
10469;SDS011;5282;47.052;15.458;2024-01-27T09:06:50;1.57;;;1.30;;
10469;SDS011;5282;47.052;15.458;2024-01-27T09:09:17;1.30;;;1.20;;
10469;SDS011;5282;47.052;15.458;2024-01-27T09:11:44;2.47;;;1.40;;
10469;SDS011;5282;47.052;15.458;2024-01-27T09:14:12;2.37;;;1.30;;
10469;SDS011;5282;47.052;15.458;2024-01-27T09:16:40;1.30;;;1.00;;
10469;SDS011;5282;47.052;15.458;2024-01-27T09:19:07;0.87;;;0.80;;
10469;SDS011;5282;47.052;15.458;2024-01-27T09:21:34;1.17;;;1.10;;
10469;SDS011;5282;47.052;15.458;2024-01-27T09:24:02;1.37;;;1.20;;
10469;SDS011;5282;47.052;15.458;2024-01-27T09:26:29;2.10;;;1.00;;
10469;SDS011;5282;47.052;15.458;2024-01-27T09:28:56;1.80;;;1.00;;
10469;SDS011;5282;47.052;15.458;2024-01-27T09:31:23;0.80;;;0.80;;
10469;SDS011;5282;47.052;15.458;2024-01-27T09:33:52;2.10;;;0.90;;
10469;SDS011;5282;47.052;15.458;2024-01-27T09:36:20;1.40;;;0.73;;
10469;SDS011;5282;47.052;15.458;2024-01-27T09:38:47;2.13;;;1.20;;
10469;SDS011;5282;47.052;15.458;2024-01-27T09:41:14;0.80;;;0.80;;
10469;SDS011;5282;47.052;15.458;2024-01-27T09:43:42;3.43;;;0.80;;
10469;SDS011;5282;47.052;15.458;2024-01-27T09:46:10;1.40;;;1.23;;
10469;SDS011;5282;47.052;15.458;2024-01-27T09:48:37;1.00;;;1.00;;
10469;SDS011;5282;47.052;15.458;2024-01-27T09:51:06;4.83;;;1.07;;
10469;SDS011;5282;47.052;15.458;2024-01-27T09:53:34;1.00;;;1.00;;
10469;SDS011;5282;47.052;15.458;2024-01-27T09:56:01;3.83;;;1.00;;
10469;SDS011;5282;47.052;15.458;2024-01-27T09:58:30;1.07;;;1.00;;
10469;SDS011;5282;47.052;15.458;2024-01-27T10:00:58;1.00;;;0.90;;
10469;SDS011;5282;47.052;15.458;2024-01-27T10:03:27;1.37;;;0.87;;
10469;SDS011;5282;47.052;15.458;2024-01-27T10:05:56;1.67;;;1.10;;
10469;SDS011;5282;47.052;15.458;2024-01-27T10:08:24;1.20;;;0.90;;
10469;SDS011;5282;47.052;15.458;2024-01-27T10:10:53;0.90;;;0.90;;
10469;SDS011;5282;47.052;15.458;2024-01-27T10:13:22;2.03;;;0.83;;
10469;SDS011;5282;47.052;15.458;2024-01-27T10:16:00;4.20;;;1.30;;
10469;SDS011;5282;47.052;15.458;2024-01-27T10:18:28;0.97;;;0.90;;
10469;SDS011;5282;47.052;15.458;2024-01-27T10:20:56;0.63;;;0.63;;
10469;SDS011;5282;47.052;15.458;2024-01-27T10:23:25;2.50;;;1.00;;
10469;SDS011;5282;47.052;15.458;2024-01-27T10:25:52;0.70;;;0.70;;
10469;SDS011;5282;47.052;15.458;2024-01-27T10:28:19;0.80;;;0.80;;
10469;SDS011;5282;47.052;15.458;2024-01-27T10:30:48;0.87;;;0.83;;
10469;SDS011;5282;47.052;15.458;2024-01-27T10:33:14;2.73;;;0.70;;
10469;SDS011;5282;47.052;15.458;2024-01-27T10:35:42;0.60;;;0.60;;
10469;SDS011;5282;47.052;15.458;2024-01-27T10:38:09;1.10;;;0.80;;
10469;SDS011;5282;47.052;15.458;2024-01-27T10:40:38;1.00;;;1.00;;
10469;SDS011;5282;47.052;15.458;2024-01-27T10:43:07;0.47;;;0.47;;
10469;SDS011;5282;47.052;15.458;2024-01-27T10:45:36;0.57;;;0.40;;
10469;SDS011;5282;47.052;15.458;2024-01-27T10:48:04;0.57;;;0.57;;
10469;SDS011;5282;47.052;15.458;2024-01-27T10:50:34;2.07;;;0.60;;
10469;SDS011;5282;47.052;15.458;2024-01-27T10:53:03;0.60;;;0.60;;
10469;SDS011;5282;47.052;15.458;2024-01-27T10:55:31;0.80;;;0.60;;
10469;SDS011;5282;47.052;15.458;2024-01-27T10:58:01;2.73;;;1.00;;
10469;SDS011;5282;47.052;15.458;2024-01-27T11:00:28;0.93;;;0.63;;
10469;SDS011;5282;47.052;15.458;2024-01-27T11:02:59;5.10;;;0.70;;
10469;SDS011;5282;47.052;15.458;2024-01-27T11:05:28;0.63;;;0.60;;
10469;SDS011;5282;47.052;15.458;2024-01-27T11:07:56;0.50;;;0.50;;
10469;SDS011;5282;47.052;15.458;2024-01-27T11:10:25;0.60;;;0.60;;
10469;SDS011;5282;47.052;15.458;2024-01-27T11:12:56;0.77;;;0.63;;
10469;SDS011;5282;47.052;15.458;2024-01-27T11:15:24;1.17;;;0.60;;
10469;SDS011;5282;47.052;15.458;2024-01-27T11:17:51;0.60;;;0.60;;
10469;SDS011;5282;47.052;15.458;2024-01-27T11:20:23;0.70;;;0.70;;
10469;SDS011;5282;47.052;15.458;2024-01-27T11:22:51;1.80;;;0.57;;
10469;SDS011;5282;47.052;15.458;2024-01-27T11:25:20;0.77;;;0.60;;
10469;SDS011;5282;47.052;15.458;2024-01-27T11:27:47;2.77;;;0.90;;
10469;SDS011;5282;47.052;15.458;2024-01-27T11:33:04;0.40;;;0.40;;
10469;SDS011;5282;47.052;15.458;2024-01-27T11:35:31;0.77;;;0.50;;
10469;SDS011;5282;47.052;15.458;2024-01-27T11:37:58;0.40;;;0.40;;
10469;SDS011;5282;47.052;15.458;2024-01-27T11:40:25;0.50;;;0.50;;
10469;SDS011;5282;47.052;15.458;2024-01-27T11:42:54;0.40;;;0.40;;
10469;SDS011;5282;47.052;15.458;2024-01-27T11:45:22;0.70;;;0.70;;
10469;SDS011;5282;47.052;15.458;2024-01-27T11:47:51;0.93;;;0.57;;
10469;SDS011;5282;47.052;15.458;2024-01-27T11:50:18;0.47;;;0.47;;
10469;SDS011;5282;47.052;15.458;2024-01-27T11:52:46;0.40;;;0.40;;
10469;SDS011;5282;47.052;15.458;2024-01-27T11:55:13;0.60;;;0.60;;
10469;SDS011;5282;47.052;15.458;2024-01-27T11:57:41;0.83;;;0.30;;
10469;SDS011;5282;47.052;15.458;2024-01-27T12:00:09;0.37;;;0.37;;
10469;SDS011;5282;47.052;15.458;2024-01-27T12:02:36;0.40;;;0.40;;
10469;SDS011;5282;47.052;15.458;2024-01-27T12:05:05;0.40;;;0.40;;
10469;SDS011;5282;47.052;15.458;2024-01-27T12:07:34;0.40;;;0.40;;
10469;SDS011;5282;47.052;15.458;2024-01-27T12:10:01;0.50;;;0.50;;
10469;SDS011;5282;47.052;15.458;2024-01-27T12:12:28;0.50;;;0.50;;
10469;SDS011;5282;47.052;15.458;2024-01-27T12:14:55;2.63;;;0.50;;
10469;SDS011;5282;47.052;15.458;2024-01-27T12:17:22;0.50;;;0.47;;
10469;SDS011;5282;47.052;15.458;2024-01-27T12:19:49;0.60;;;0.43;;
10469;SDS011;5282;47.052;15.458;2024-01-27T12:22:23;0.30;;;0.30;;
10469;SDS011;5282;47.052;15.458;2024-01-27T12:24:53;0.40;;;0.40;;
10469;SDS011;5282;47.052;15.458;2024-01-27T12:27:21;0.40;;;0.40;;
10469;SDS011;5282;47.052;15.458;2024-01-27T12:29:49;0.60;;;0.60;;
10469;SDS011;5282;47.052;15.458;2024-01-27T12:32:15;0.57;;;0.47;;
10469;SDS011;5282;47.052;15.458;2024-01-27T12:34:42;1.10;;;0.40;;
10469;SDS011;5282;47.052;15.458;2024-01-27T12:37:11;1.00;;;0.40;;
10469;SDS011;5282;47.052;15.458;2024-01-27T12:39:42;0.47;;;0.47;;
10469;SDS011;5282;47.052;15.458;2024-01-27T12:42:10;0.73;;;0.40;;
10469;SDS011;5282;47.052;15.458;2024-01-27T12:44:37;0.40;;;0.40;;
10469;SDS011;5282;47.052;15.458;2024-01-27T12:47:05;0.33;;;0.33;;
10469;SDS011;5282;47.052;15.458;2024-01-27T12:49:34;1.10;;;0.37;;
10469;SDS011;5282;47.052;15.458;2024-01-27T12:52:01;0.40;;;0.40;;
10469;SDS011;5282;47.052;15.458;2024-01-27T12:54:28;1.53;;;0.30;;
10469;SDS011;5282;47.052;15.458;2024-01-27T12:56:57;0.53;;;0.27;;
10469;SDS011;5282;47.052;15.458;2024-01-27T12:59:26;0.30;;;0.30;;
10469;SDS011;5282;47.052;15.458;2024-01-27T13:01:53;0.50;;;0.50;;
10469;SDS011;5282;47.052;15.458;2024-01-27T13:04:21;2.97;;;0.50;;
10469;SDS011;5282;47.052;15.458;2024-01-27T13:06:48;0.50;;;0.40;;
10469;SDS011;5282;47.052;15.458;2024-01-27T13:09:16;0.90;;;0.40;;
10469;SDS011;5282;47.052;15.458;2024-01-27T13:11:43;1.93;;;0.43;;
10469;SDS011;5282;47.052;15.458;2024-01-27T13:14:11;0.37;;;0.30;;
10469;SDS011;5282;47.052;15.458;2024-01-27T13:16:40;1.03;;;0.30;;
10469;SDS011;5282;47.052;15.458;2024-01-27T13:19:07;0.37;;;0.20;;
10469;SDS011;5282;47.052;15.458;2024-01-27T13:21:34;0.30;;;0.30;;
10469;SDS011;5282;47.052;15.458;2024-01-27T13:24:01;0.30;;;0.30;;
10469;SDS011;5282;47.052;15.458;2024-01-27T13:26:28;1.40;;;0.40;;
10469;SDS011;5282;47.052;15.458;2024-01-27T13:28:57;1.27;;;0.23;;
10469;SDS011;5282;47.052;15.458;2024-01-27T13:31:25;0.93;;;0.30;;
10469;SDS011;5282;47.052;15.458;2024-01-27T13:33:52;0.83;;;0.30;;
10469;SDS011;5282;47.052;15.458;2024-01-27T13:36:19;1.00;;;0.30;;
10469;SDS011;5282;47.052;15.458;2024-01-27T13:38:46;0.90;;;0.30;;
10469;SDS011;5282;47.052;15.458;2024-01-27T13:41:13;0.10;;;0.10;;
10469;SDS011;5282;47.052;15.458;2024-01-27T13:43:41;0.20;;;0.20;;
10469;SDS011;5282;47.052;15.458;2024-01-27T13:46:08;0.40;;;0.40;;
10469;SDS011;5282;47.052;15.458;2024-01-27T13:48:37;2.80;;;0.30;;
10469;SDS011;5282;47.052;15.458;2024-01-27T13:51:04;0.30;;;0.30;;
10469;SDS011;5282;47.052;15.458;2024-01-27T13:53:33;0.57;;;0.40;;
10469;SDS011;5282;47.052;15.458;2024-01-27T13:56:00;0.53;;;0.53;;
10469;SDS011;5282;47.052;15.458;2024-01-27T13:58:27;1.40;;;1.00;;
10469;SDS011;5282;47.052;15.458;2024-01-27T14:00:54;0.40;;;0.40;;
10469;SDS011;5282;47.052;15.458;2024-01-27T14:03:21;1.00;;;0.40;;
10469;SDS011;5282;47.052;15.458;2024-01-27T14:05:49;0.47;;;0.40;;
10469;SDS011;5282;47.052;15.458;2024-01-27T14:08:17;0.30;;;0.20;;
10469;SDS011;5282;47.052;15.458;2024-01-27T14:10:44;0.50;;;0.50;;
10469;SDS011;5282;47.052;15.458;2024-01-27T14:13:13;0.60;;;0.60;;
10469;SDS011;5282;47.052;15.458;2024-01-27T14:15:40;0.30;;;0.30;;
10469;SDS011;5282;47.052;15.458;2024-01-27T14:18:08;0.53;;;0.33;;
10469;SDS011;5282;47.052;15.458;2024-01-27T14:20:39;0.30;;;0.30;;
10469;SDS011;5282;47.052;15.458;2024-01-27T14:23:07;1.37;;;0.50;;
10469;SDS011;5282;47.052;15.458;2024-01-27T14:25:34;1.07;;;0.50;;
10469;SDS011;5282;47.052;15.458;2024-01-27T14:28:01;0.30;;;0.30;;
10469;SDS011;5282;47.052;15.458;2024-01-27T14:30:28;1.00;;;0.30;;
10469;SDS011;5282;47.052;15.458;2024-01-27T14:32:55;1.00;;;0.40;;
10469;SDS011;5282;47.052;15.458;2024-01-27T14:35:23;0.30;;;0.30;;
10469;SDS011;5282;47.052;15.458;2024-01-27T14:37:51;0.93;;;0.43;;
10469;SDS011;5282;47.052;15.458;2024-01-27T14:40:20;0.40;;;0.40;;
10469;SDS011;5282;47.052;15.458;2024-01-27T14:42:47;1.23;;;0.30;;
10469;SDS011;5282;47.052;15.458;2024-01-27T14:45:15;0.73;;;0.40;;
10469;SDS011;5282;47.052;15.458;2024-01-27T14:47:43;1.50;;;0.60;;
10469;SDS011;5282;47.052;15.458;2024-01-27T14:50:10;0.60;;;0.30;;
10469;SDS011;5282;47.052;15.458;2024-01-27T14:52:37;0.87;;;0.60;;